Time;durP1;ratioP1;P1;durP2;ratioP2;P2;SDS_P1;SDS_P2;PMS_P1;PMS_P2;Temp;Humidity;BMP_temperature;BMP_pressure;BME280_temperature;BME280_humidity;BME280_pressure;Samples;Min_cycle;Max_cycle;Signal;HPM_P1;HPM_P2
2023/05/12 00:02:06;;;;;;;11.13;8.48;;;13.50;99.90;;;;;;6180469;23;20008;-73
2023/05/12 00:04:31;;;;;;;11.52;9.02;;;13.50;99.90;;;;;;6180311;23;20029;-73
2023/05/12 00:06:57;;;;;;;11.07;9.38;;;13.40;99.90;;;;;;6179628;23;20005;-73
2023/05/12 00:09:23;;;;;;;16.02;11.90;;;13.40;99.90;;;;;;6178710;23;20088;-73
2023/05/12 00:11:48;;;;;;;12.50;11.20;;;13.40;99.90;;;;;;6177548;23;20084;-73
2023/05/12 00:14:14;;;;;;;13.93;12.07;;;13.40;99.90;;;;;;6177254;23;20063;-73
2023/05/12 00:16:40;;;;;;;12.82;11.52;;;13.20;99.90;;;;;;6178028;23;20029;-73
2023/05/12 00:19:06;;;;;;;12.38;11.05;;;13.30;99.90;;;;;;6177248;23;20599;-73
2023/05/12 00:21:31;;;;;;;13.60;12.18;;;13.20;99.90;;;;;;6151644;23;20009;-73
2023/05/12 00:23:57;;;;;;;13.82;12.27;;;13.20;99.90;;;;;;6178618;23;20680;-73
2023/05/12 00:26:23;;;;;;;12.75;10.40;;;13.20;99.90;;;;;;6179026;23;20011;-73
2023/05/12 00:28:48;;;;;;;12.13;10.80;;;13.20;99.90;;;;;;6180505;23;20001;-73
2023/05/12 00:31:14;;;;;;;11.13;9.70;;;13.20;99.90;;;;;;6153230;23;20009;-73
2023/05/12 00:33:40;;;;;;;11.82;9.65;;;13.20;99.90;;;;;;6179937;23;20008;-73
2023/05/12 00:36:06;;;;;;;13.82;10.80;;;13.20;99.90;;;;;;6180433;23;20300;-72
2023/05/12 00:38:33;;;;;;;11.48;9.45;;;13.20;99.90;;;;;;6179968;23;20005;-73
2023/05/12 00:41:00;;;;;;;10.88;9.77;;;13.20;99.90;;;;;;6181400;23;20020;-73
2023/05/12 00:43:25;;;;;;;11.55;10.13;;;13.10;99.90;;;;;;6181085;23;20009;-73
2023/05/12 00:45:51;;;;;;;11.50;9.75;;;13.10;99.90;;;;;;6181948;23;20001;-73
2023/05/12 00:48:17;;;;;;;10.23;8.40;;;13.10;99.90;;;;;;6180955;23;20029;-71
2023/05/12 00:50:43;;;;;;;13.38;9.82;;;13.10;99.90;;;;;;6182036;23;20004;-72
2023/05/12 00:53:09;;;;;;;11.38;10.18;;;13.10;99.90;;;;;;6155322;23;20009;-72
2023/05/12 00:55:36;;;;;;;10.02;8.63;;;13.10;99.90;;;;;;6182113;23;20005;-72
2023/05/12 00:58:02;;;;;;;9.23;8.23;;;13.10;99.90;;;;;;6181902;23;20104;-71
2023/05/12 01:00:28;;;;;;;7.97;7.18;;;13.10;99.90;;;;;;6181507;23;20009;-72
2023/05/12 01:02:57;;;;;;;9.13;8.05;;;13.00;99.90;;;;;;6181382;23;20008;-72
2023/05/12 01:05:30;;;;;;;9.90;7.35;;;13.00;99.90;;;;;;6181336;23;20000;-72
2023/05/12 01:07:58;;;;;;;11.95;7.88;;;13.00;99.90;;;;;;6182053;23;19997;-71
2023/05/12 01:10:24;;;;;;;8.27;7.25;;;13.00;99.90;;;;;;6181348;23;19997;-72
2023/05/12 01:12:50;;;;;;;7.72;6.40;;;12.90;99.90;;;;;;6181816;23;20001;-72
2023/05/12 01:15:17;;;;;;;9.20;6.80;;;12.90;99.90;;;;;;6181104;23;20028;-72
2023/05/12 01:17:51;;;;;;;8.68;6.22;;;12.90;99.90;;;;;;6181258;23;20001;-72
2023/05/12 01:20:20;;;;;;;7.05;5.65;;;12.90;99.90;;;;;;6181280;23;20411;-72
2023/05/12 01:22:48;;;;;;;8.70;6.18;;;12.80;99.90;;;;;;6181696;23;20008;-71
2023/05/12 01:25:14;;;;;;;6.22;5.03;;;12.80;99.90;;;;;;6181099;23;20526;-72
2023/05/12 01:27:41;;;;;;;8.32;5.57;;;12.80;99.90;;;;;;6181621;23;20001;-72
2023/05/12 01:30:10;;;;;;;6.45;4.93;;;12.80;99.90;;;;;;6181435;23;20399;-73
2023/05/12 01:32:37;;;;;;;5.68;3.90;;;12.80;99.90;;;;;;6154712;23;20096;-72
2023/05/12 01:35:03;;;;;;;4.47;2.95;;;12.80;99.90;;;;;;6154968;23;20016;-72
2023/05/12 01:37:28;;;;;;;5.03;3.65;;;12.80;99.90;;;;;;6180953;23;20009;-72
2023/05/12 01:39:54;;;;;;;6.00;3.20;;;12.80;99.90;;;;;;6154906;23;20368;-72
2023/05/12 01:42:20;;;;;;;3.75;2.88;;;12.80;99.90;;;;;;6180772;23;20387;-73
2023/05/12 01:44:45;;;;;;;4.90;3.47;;;12.80;99.90;;;;;;6181553;23;20099;-74
2023/05/12 01:47:12;;;;;;;4.05;2.85;;;12.80;99.90;;;;;;6180224;23;20431;-73
2023/05/12 01:49:37;;;;;;;3.08;2.35;;;12.80;99.90;;;;;;6181475;23;20005;-73
2023/05/12 01:52:03;;;;;;;3.70;2.60;;;12.90;99.90;;;;;;6180966;23;20475;-73
2023/05/12 01:54:29;;;;;;;3.05;2.20;;;12.80;99.90;;;;;;6180875;23;20084;-73
2023/05/12 01:56:55;;;;;;;4.35;2.70;;;12.90;99.90;;;;;;6181658;23;20001;-73
2023/05/12 01:59:20;;;;;;;3.05;2.13;;;12.90;99.90;;;;;;6180560;23;20418;-73
2023/05/12 02:01:46;;;;;;;7.25;2.85;;;12.90;99.90;;;;;;6180802;23;20323;-73
2023/05/12 02:04:11;;;;;;;5.38;3.28;;;12.80;99.90;;;;;;6180440;23;20001;-73
2023/05/12 02:06:37;;;;;;;5.40;3.10;;;12.80;99.90;;;;;;6181301;23;20001;-73
2023/05/12 02:09:03;;;;;;;5.15;3.10;;;12.90;99.90;;;;;;6181226;23;20047;-74
2023/05/12 02:11:29;;;;;;;10.13;5.00;;;12.90;99.90;;;;;;6180674;23;20100;-73
2023/05/12 02:13:55;;;;;;;7.68;4.45;;;12.90;99.90;;;;;;6181334;23;20099;-73
2023/05/12 02:16:20;;;;;;;6.20;4.88;;;12.90;99.90;;;;;;6179959;23;20558;-73
2023/05/12 02:18:46;;;;;;;10.23;5.85;;;12.90;99.90;;;;;;6181247;23;20005;-73
2023/05/12 02:21:12;;;;;;;8.90;5.60;;;12.90;99.90;;;;;;6180445;23;20005;-74
2023/05/12 02:23:37;;;;;;;11.20;7.05;;;12.90;99.90;;;;;;6180980;23;20009;-74
2023/05/12 02:26:03;;;;;;;12.00;6.82;;;12.90;99.90;;;;;;6181031;23;20005;-73
2023/05/12 02:28:28;;;;;;;10.70;6.97;;;12.90;99.90;;;;;;6153887;23;20108;-74
2023/05/12 02:30:54;;;;;;;12.93;7.50;;;12.90;99.90;;;;;;6180486;23;20005;-73
2023/05/12 02:33:20;;;;;;;9.85;7.15;;;12.90;99.90;;;;;;6153883;23;20481;-73
2023/05/12 02:35:46;;;;;;;14.07;8.32;;;12.90;99.90;;;;;;6180815;23;20005;-73
2023/05/12 02:38:12;;;;;;;12.02;7.70;;;12.90;99.90;;;;;;6180442;23;20012;-73
2023/05/12 02:40:38;;;;;;;14.52;9.13;;;12.90;99.90;;;;;;6181104;23;20015;-73
2023/05/12 02:43:04;;;;;;;18.52;10.63;;;12.90;99.90;;;;;;6180551;23;20051;-73
2023/05/12 02:45:30;;;;;;;19.38;10.85;;;12.90;99.90;;;;;;6179717;23;20001;-73
2023/05/12 02:47:55;;;;;;;21.85;11.55;;;12.90;99.90;;;;;;6180925;23;20008;-74
2023/05/12 02:50:21;;;;;;;19.45;12.85;;;13.00;99.90;;;;;;6180102;23;20322;-74
2023/05/12 02:52:47;;;;;;;19.58;12.48;;;12.90;99.90;;;;;;6180998;23;20001;-73
2023/05/12 02:55:13;;;;;;;21.33;12.90;;;13.00;99.90;;;;;;6153641;23;20055;-73
2023/05/12 02:57:38;;;;;;;23.35;14.20;;;12.90;99.90;;;;;;6180902;23;20366;-74
2023/05/12 03:00:05;;;;;;;20.50;12.90;;;12.90;99.90;;;;;;6180115;23;19997;-73
2023/05/12 03:02:35;;;;;;;21.50;14.80;;;12.90;99.90;;;;;;6180153;23;20071;-73
2023/05/12 03:05:01;;;;;;;26.73;15.73;;;13.00;99.90;;;;;;6180397;23;20300;-73
2023/05/12 03:07:27;;;;;;;23.23;15.30;;;12.90;99.90;;;;;;6179910;23;20659;-73
2023/05/12 03:09:56;;;;;;;26.60;14.48;;;12.90;99.90;;;;;;6180766;23;20011;-74
2023/05/12 03:12:21;;;;;;;26.48;15.52;;;13.00;99.90;;;;;;6180115;23;19993;-73
2023/05/12 03:14:47;;;;;;;23.45;16.38;;;13.00;99.90;;;;;;6180146;23;20039;-73
2023/05/12 03:17:12;;;;;;;29.27;16.38;;;13.00;99.90;;;;;;6180148;23;20001;-73
2023/05/12 03:19:38;;;;;;;29.83;18.02;;;13.00;99.90;;;;;;6154099;23;20004;-73
2023/05/12 03:22:06;;;;;;;24.10;15.50;;;13.00;99.90;;;;;;6180748;23;20051;-72
2023/05/12 03:24:31;;;;;;;28.23;17.48;;;13.00;99.90;;;;;;6180122;23;20005;-73
2023/05/12 03:26:57;;;;;;;26.58;16.17;;;13.00;99.90;;;;;;6180865;23;20001;-73
2023/05/12 03:29:23;;;;;;;28.23;17.80;;;13.00;99.90;;;;;;6179390;23;20001;-73
2023/05/12 03:31:49;;;;;;;31.17;17.95;;;13.00;99.90;;;;;;6154216;23;20441;-74
2023/05/12 03:34:14;;;;;;;28.27;16.23;;;13.00;99.90;;;;;;6153534;23;20327;-74
2023/05/12 03:36:40;;;;;;;28.75;18.13;;;13.00;99.90;;;;;;6180614;23;20035;-74
2023/05/12 03:39:08;;;;;;;25.00;17.35;;;13.00;99.90;;;;;;6180539;23;19997;-73
2023/05/12 03:41:34;;;;;;;36.33;19.45;;;13.00;99.90;;;;;;6180316;23;20076;-74
2023/05/12 03:44:00;;;;;;;32.35;19.08;;;13.00;99.90;;;;;;6179696;23;20131;-73
2023/05/12 03:46:25;;;;;;;39.90;22.80;;;13.10;99.90;;;;;;6180023;23;20350;-73
2023/05/12 03:48:51;;;;;;;30.52;19.02;;;13.10;99.90;;;;;;6178733;23;20090;-73
2023/05/12 03:51:16;;;;;;;32.05;21.25;;;13.10;99.90;;;;;;6179593;23;20169;-74
2023/05/12 03:53:45;;;;;;;35.38;20.48;;;13.10;99.90;;;;;;6154152;23;20059;-74
2023/05/12 03:56:10;;;;;;;36.35;22.08;;;13.10;99.90;;;;;;6180180;23;20007;-74
2023/05/12 03:58:36;;;;;;;43.47;24.55;;;13.10;99.90;;;;;;6153445;23;20446;-74
2023/05/12 04:01:01;;;;;;;33.67;22.08;;;13.10;99.90;;;;;;6180723;23;20032;-74
2023/05/12 04:03:27;;;;;;;44.35;25.13;;;13.20;99.90;;;;;;6179604;23;20009;-74
2023/05/12 04:06:00;;;;;;;50.58;26.00;;;13.20;99.90;;;;;;6180726;23;20318;-74
2023/05/12 04:08:27;;;;;;;46.25;24.70;;;13.20;99.90;;;;;;6179780;23;20000;-74
2023/05/12 04:10:57;;;;;;;47.90;26.88;;;13.20;99.90;;;;;;6180729;23;20001;-74
2023/05/12 04:13:23;;;;;;;44.40;25.02;;;13.30;99.90;;;;;;6179253;23;20012;-74
2023/05/12 04:15:49;;;;;;;47.58;27.83;;;13.30;99.90;;;;;;6181253;23;20001;-73
2023/05/12 04:18:16;;;;;;;47.45;26.85;;;13.40;99.90;;;;;;6181645;23;20068;-74
2023/05/12 04:20:42;;;;;;;39.65;26.25;;;13.40;99.90;;;;;;6182248;23;20008;-74
2023/05/12 04:23:08;;;;;;;50.78;27.75;;;13.30;99.90;;;;;;6155592;23;20093;-74
2023/05/12 04:25:38;;;;;;;47.45;27.77;;;13.40;99.90;;;;;;6182264;23;19997;-74
2023/05/12 04:28:05;;;;;;;50.42;29.05;;;13.50;99.90;;;;;;6182075;23;20076;-75
2023/05/12 04:30:31;;;;;;;52.72;29.80;;;13.50;99.90;;;;;;6181763;23;20108;-74
2023/05/12 04:32:56;;;;;;;51.97;29.63;;;13.50;99.90;;;;;;6182196;23;20453;-74
2023/05/12 04:35:22;;;;;;;50.38;29.25;;;13.50;99.90;;;;;;6181367;23;20012;-74
2023/05/12 04:37:48;;;;;;;50.80;31.30;;;13.60;99.90;;;;;;6182338;23;19997;-73
2023/05/12 04:40:13;;;;;;;49.67;29.50;;;13.50;99.90;;;;;;6181163;23;20127;-73
2023/05/12 04:42:39;;;;;;;48.67;31.83;;;13.60;99.90;;;;;;6181956;23;20452;-73
2023/05/12 04:45:06;;;;;;;48.72;31.27;;;13.60;99.90;;;;;;6182071;23;20025;-74
2023/05/12 04:47:31;;;;;;;46.65;29.70;;;13.60;99.90;;;;;;6181645;23;20037;-73
2023/05/12 04:49:57;;;;;;;51.60;32.15;;;13.60;99.90;;;;;;6155700;23;20008;-74
2023/05/12 04:52:23;;;;;;;52.85;32.50;;;13.70;99.90;;;;;;6155141;23;20083;-74
2023/05/12 04:54:49;;;;;;;53.70;33.70;;;13.70;99.90;;;;;;6181695;23;20008;-73
2023/05/12 04:57:15;;;;;;;46.70;28.95;;;13.80;99.90;;;;;;6181457;23;20001;-74
2023/05/12 04:59:41;;;;;;;49.83;31.67;;;13.80;99.90;;;;;;6181916;23;20032;-74
2023/05/12 05:02:07;;;;;;;46.05;30.83;;;13.90;99.90;;;;;;6181691;23;20078;-76
2023/05/12 05:04:33;;;;;;;60.03;34.30;;;13.90;99.90;;;;;;6181447;23;20016;-75
2023/05/12 05:06:58;;;;;;;53.25;33.83;;;14.00;99.90;;;;;;6155457;23;20013;-74
2023/05/12 05:09:24;;;;;;;54.22;34.97;;;14.00;99.90;;;;;;6154327;23;20275;-76
2023/05/12 05:11:49;;;;;;;55.97;35.10;;;14.00;99.90;;;;;;6182136;23;19997;-75
2023/05/12 05:14:15;;;;;;;49.88;32.72;;;14.10;99.90;;;;;;6181143;23;20426;-75
2023/05/12 05:16:41;;;;;;;54.38;34.63;;;14.10;99.90;;;;;;6182114;23;20009;-75
2023/05/12 05:19:06;;;;;;;57.00;35.55;;;14.10;99.90;;;;;;6181359;23;20080;-76
2023/05/12 05:21:33;;;;;;;59.75;36.72;;;14.20;99.90;;;;;;6153505;23;20005;-75
2023/05/12 05:23:59;;;;;;;54.83;35.67;;;14.20;99.90;;;;;;6179608;23;20419;-76
2023/05/12 05:26:24;;;;;;;52.25;35.05;;;14.20;99.90;;;;;;6179340;23;20012;-75
2023/05/12 05:28:53;;;;;;;55.22;34.22;;;14.20;99.90;;;;;;6181530;23;19997;-76
2023/05/12 05:31:20;;;;;;;50.63;33.83;;;14.20;99.90;;;;;;6181281;23;19997;-76
2023/05/12 05:33:45;;;;;;;45.88;31.17;;;14.30;99.90;;;;;;6181803;23;20312;-75
2023/05/12 05:36:11;;;;;;;56.13;37.28;;;14.40;99.90;;;;;;6181553;23;20008;-76
2023/05/12 05:38:37;;;;;;;51.63;33.22;;;14.40;99.90;;;;;;6181376;23;20083;-75
2023/05/12 05:41:04;;;;;;;47.92;34.50;;;14.40;99.90;;;;;;6181944;23;20064;-74
2023/05/12 05:43:29;;;;;;;52.50;35.28;;;14.40;99.90;;;;;;6180745;23;20017;-74
2023/05/12 05:45:57;;;;;;;46.95;33.38;;;14.40;99.90;;;;;;6155529;23;20044;-73
2023/05/12 05:48:23;;;;;;;51.67;31.90;;;14.60;99.90;;;;;;6179206;23;20005;-76
2023/05/12 05:50:50;;;;;;;49.53;33.35;;;14.60;99.90;;;;;;6181631;23;20003;-74
2023/05/12 05:53:19;;;;;;;47.05;32.35;;;14.60;99.90;;;;;;6180786;23;20013;-75
2023/05/12 05:55:46;;;;;;;40.20;29.33;;;14.70;99.90;;;;;;6181700;23;20008;-74
2023/05/12 05:58:11;;;;;;;44.35;32.00;;;14.80;99.90;;;;;;6180395;23;20024;-74
2023/05/12 06:00:37;;;;;;;43.65;31.67;;;14.80;99.90;;;;;;6181412;23;20423;-74
2023/05/12 06:03:03;;;;;;;44.42;32.58;;;14.80;99.90;;;;;;6181278;23;20001;-74
2023/05/12 06:05:28;;;;;;;39.65;30.90;;;14.90;99.90;;;;;;6180859;23;20004;-74
2023/05/12 06:07:54;;;;;;;42.80;31.83;;;14.90;99.90;;;;;;6180807;23;20004;-74
2023/05/12 06:10:20;;;;;;;38.88;30.88;;;14.90;99.90;;;;;;6180549;23;20016;-74
2023/05/12 06:12:45;;;;;;;39.80;30.08;;;14.90;99.90;;;;;;6154953;23;20028;-73
2023/05/12 06:15:11;;;;;;;42.20;31.65;;;15.00;99.90;;;;;;6180573;23;20005;-73
2023/05/12 06:17:37;;;;;;;38.88;30.73;;;15.00;99.90;;;;;;6181245;23;20008;-73
2023/05/12 06:20:04;;;;;;;37.90;29.17;;;15.00;99.90;;;;;;6181045;23;20005;-74
2023/05/12 06:22:30;;;;;;;41.85;31.95;;;15.00;99.90;;;;;;6180004;23;20006;-73
2023/05/12 06:24:55;;;;;;;39.25;30.67;;;15.10;99.90;;;;;;6181056;23;20012;-74
2023/05/12 06:27:21;;;;;;;38.15;30.40;;;15.10;99.90;;;;;;6153965;23;20088;-74
2023/05/12 06:29:47;;;;;;;42.70;33.05;;;15.10;99.90;;;;;;6181166;23;20403;-74
2023/05/12 06:32:12;;;;;;;41.97;32.58;;;15.10;99.90;;;;;;6180508;23;20428;-74
2023/05/12 06:34:38;;;;;;;35.53;30.60;;;15.10;99.90;;;;;;6181102;23;20009;-73
2023/05/12 06:37:04;;;;;;;39.88;31.23;;;15.20;99.90;;;;;;6180554;23;20013;-73
2023/05/12 06:39:29;;;;;;;29.90;26.70;;;15.10;99.90;;;;;;6180181;23;20449;-73
2023/05/12 06:41:55;;;;;;;31.33;27.90;;;15.20;99.90;;;;;;6180923;23;19997;-73
2023/05/12 06:44:20;;;;;;;35.10;29.27;;;15.20;99.90;;;;;;6180024;23;20048;-73
2023/05/12 06:46:46;;;;;;;36.65;30.70;;;15.20;99.90;;;;;;6181093;23;20001;-73
2023/05/12 06:49:11;;;;;;;35.45;30.33;;;15.30;99.90;;;;;;6179810;23;19998;-73
2023/05/12 06:51:37;;;;;;;33.35;28.35;;;15.30;99.90;;;;;;6180234;23;19993;-73
2023/05/12 06:54:02;;;;;;;36.15;29.58;;;15.40;99.90;;;;;;6180009;23;20329;-72
2023/05/12 06:56:28;;;;;;;34.08;27.58;;;15.40;99.90;;;;;;6179067;23;20012;-72
2023/05/12 06:58:59;;;;;;;28.45;25.45;;;15.50;99.90;;;;;;6179883;23;20005;-72
2023/05/12 07:01:26;;;;;;;33.00;27.65;;;15.60;99.90;;;;;;6178974;23;20044;-72
2023/05/12 07:03:51;;;;;;;33.88;27.42;;;15.60;99.90;;;;;;6179889;23;20001;-71
2023/05/12 07:06:17;;;;;;;33.33;27.80;;;15.60;99.90;;;;;;6152135;23;20143;-72
2023/05/12 07:08:42;;;;;;;32.10;27.30;;;15.70;99.90;;;;;;6179580;23;20086;-73
2023/05/12 07:11:08;;;;;;;30.67;27.30;;;15.80;99.90;;;;;;6179528;23;20025;-73
2023/05/12 07:13:33;;;;;;;30.17;27.00;;;15.80;99.90;;;;;;6179129;23;20143;-72
2023/05/12 07:15:59;;;;;;;31.48;25.95;;;15.80;99.90;;;;;;6179752;23;20005;-71
2023/05/12 07:18:25;;;;;;;26.92;24.00;;;15.90;99.90;;;;;;6178728;23;20462;-72
2023/05/12 07:20:50;;;;;;;27.67;24.77;;;15.90;99.90;;;;;;6178766;23;20008;-72
2023/05/12 07:23:16;;;;;;;25.95;22.63;;;16.00;99.90;;;;;;6178534;23;20040;-72
2023/05/12 07:25:42;;;;;;;23.90;20.60;;;16.00;99.90;;;;;;6179067;23;20009;-71
2023/05/12 07:28:07;;;;;;;22.45;20.05;;;16.10;99.90;;;;;;6179539;23;20028;-71
2023/05/12 07:30:33;;;;;;;24.27;19.20;;;16.10;99.90;;;;;;6179376;23;20487;-73
2023/05/12 07:33:00;;;;;;;22.40;20.05;;;16.10;99.90;;;;;;6177727;23;20009;-72
2023/05/12 07:35:26;;;;;;;21.30;19.05;;;16.30;99.90;;;;;;6178533;23;20076;-72
2023/05/12 07:37:52;;;;;;;19.05;17.23;;;16.30;99.90;;;;;;6179371;23;20005;-72
2023/05/12 07:40:17;;;;;;;21.58;19.35;;;16.30;99.90;;;;;;6152091;23;20374;-72
2023/05/12 07:42:43;;;;;;;18.67;16.88;;;16.30;99.90;;;;;;6179793;23;20079;-72
2023/05/12 07:45:09;;;;;;;20.25;18.27;;;16.50;99.90;;;;;;6179179;23;20442;-71
2023/05/12 07:47:34;;;;;;;19.05;17.13;;;16.60;99.90;;;;;;6152342;23;20017;-70
2023/05/12 07:50:00;;;;;;;18.73;16.75;;;16.70;99.90;;;;;;6179510;23;19997;-70
2023/05/12 07:52:25;;;;;;;19.95;17.95;;;16.70;99.90;;;;;;6154472;23;20115;-70
2023/05/12 07:54:51;;;;;;;20.25;17.92;;;16.80;99.90;;;;;;6155008;23;20084;-71
2023/05/12 07:57:16;;;;;;;19.92;17.73;;;16.90;99.90;;;;;;6180893;23;20069;-71
2023/05/12 07:59:43;;;;;;;18.83;17.02;;;16.90;99.90;;;;;;6157492;23;20078;-71
2023/05/12 08:02:08;;;;;;;17.17;15.52;;;17.00;99.90;;;;;;6184342;23;20430;-70
2023/05/12 08:04:34;;;;;;;18.00;16.25;;;17.10;99.90;;;;;;6182052;23;20016;-70
2023/05/12 08:07:00;;;;;;;15.50;13.95;;;17.10;99.90;;;;;;6182117;23;20001;-70
2023/05/12 08:09:25;;;;;;;16.48;14.85;;;17.20;99.90;;;;;;6181288;23;20427;-70
2023/05/12 08:11:51;;;;;;;16.13;14.45;;;17.20;99.90;;;;;;6182197;23;20001;-71
2023/05/12 08:14:16;;;;;;;16.73;15.15;;;17.30;99.90;;;;;;6155320;23;20040;-71
2023/05/12 08:16:44;;;;;;;15.68;14.18;;;17.40;99.90;;;;;;6183193;23;20411;-70
2023/05/12 08:19:11;;;;;;;15.98;14.38;;;17.40;99.90;;;;;;6182630;23;20005;-71
2023/05/12 08:21:36;;;;;;;16.05;14.48;;;17.50;99.90;;;;;;6181899;23;20036;-70
2023/05/12 08:24:02;;;;;;;13.48;12.18;;;17.50;99.90;;;;;;6181952;23;20024;-71
2023/05/12 08:26:27;;;;;;;12.45;11.25;;;17.60;99.90;;;;;;6155033;23;20001;-70
2023/05/12 08:28:53;;;;;;;12.43;11.23;;;17.70;99.90;;;;;;6181964;23;20008;-71
2023/05/12 08:31:19;;;;;;;11.07;9.93;;;17.80;99.90;;;;;;6181258;23;19994;-71
2023/05/12 08:33:45;;;;;;;10.68;9.57;;;17.80;99.90;;;;;;6155006;23;20005;-71
2023/05/12 08:36:10;;;;;;;11.30;10.20;;;17.80;99.90;;;;;;6181090;23;19997;-70
2023/05/12 08:38:36;;;;;;;10.93;9.82;;;17.80;99.90;;;;;;6181843;23;20063;-71
2023/05/12 08:41:18;;;;;;;10.10;9.10;;;17.80;99.90;;;;;;6181647;23;20012;-71
2023/05/12 08:43:47;;;;;;;11.20;9.40;;;17.90;99.90;;;;;;6181730;23;20041;-71
2023/05/12 08:46:13;;;;;;;10.10;8.60;;;17.90;99.90;;;;;;6181107;23;20057;-70
2023/05/12 08:48:40;;;;;;;12.68;8.88;;;18.00;99.90;;;;;;6180422;23;19997;-70
2023/05/12 08:51:09;;;;;;;9.05;8.15;;;18.20;99.90;;;;;;6180301;23;19997;-70
2023/05/12 08:53:36;;;;;;;8.35;7.55;;;18.30;99.90;;;;;;6177681;23;20032;-71
2023/05/12 08:56:05;;;;;;;9.27;7.38;;;18.30;99.90;;;;;;6180106;23;20001;-70
2023/05/12 08:58:31;;;;;;;7.93;7.15;;;18.40;99.90;;;;;;6180033;23;20009;-71
2023/05/12 09:00:59;;;;;;;6.43;5.88;;;18.50;99.90;;;;;;6179894;23;20031;-70
2023/05/12 09:03:29;;;;;;;6.32;5.75;;;18.50;99.90;;;;;;6180385;23;20391;-70
2023/05/12 09:05:56;;;;;;;6.30;5.70;;;18.50;99.90;;;;;;6181779;23;20001;-70
2023/05/12 09:08:24;;;;;;;6.70;5.35;;;18.50;99.90;;;;;;6154347;23;20016;-70
2023/05/12 09:10:50;;;;;;;6.18;5.47;;;18.50;99.90;;;;;;6181543;23;20007;-70
2023/05/12 09:13:48;;;;;;;7.05;5.20;;;18.70;99.90;;;;;;6180889;23;20005;-70
2023/05/12 09:16:19;;;;;;;6.00;4.72;;;18.70;99.90;;;;;;6180248;23;20076;-70
2023/05/12 09:18:50;;;;;;;4.65;4.25;;;18.80;99.90;;;;;;6181004;23;20019;-70
2023/05/12 09:21:16;;;;;;;4.03;3.70;;;18.90;99.90;;;;;;6180238;23;20071;-70
2023/05/12 09:23:56;;;;;;;6.50;4.30;;;19.00;99.90;;;;;;6180609;23;20005;-70
2023/05/12 09:26:23;;;;;;;4.80;4.30;;;19.00;99.90;;;;;;6154474;23;20005;-70
2023/05/12 09:28:51;;;;;;;4.82;3.53;;;18.90;99.90;;;;;;6181547;23;20004;-70
2023/05/12 09:31:21;;;;;;;4.57;3.00;;;18.90;99.90;;;;;;6179934;23;20008;-70
2023/05/12 09:33:47;;;;;;;3.00;2.70;;;18.90;99.90;;;;;;6181556;23;20032;-70
2023/05/12 09:36:17;;;;;;;3.35;2.78;;;19.00;99.90;;;;;;6180517;23;20075;-70
2023/05/12 09:38:42;;;;;;;5.18;2.85;;;18.90;99.90;;;;;;6181594;23;20004;-70
2023/05/12 09:41:11;;;;;;;3.28;2.53;;;19.00;99.90;;;;;;6181148;23;20466;-70
2023/05/12 09:43:43;;;;;;;2.78;2.47;;;19.00;99.90;;;;;;6180520;23;20050;-70
2023/05/12 09:46:08;;;;;;;3.15;2.85;;;19.10;99.90;;;;;;6180766;23;20450;-70
2023/05/12 09:48:34;;;;;;;2.80;2.40;;;19.00;99.90;;;;;;6154285;23;20001;-70
2023/05/12 09:51:00;;;;;;;3.00;2.75;;;19.10;99.90;;;;;;6181153;23;20075;-70
2023/05/12 09:53:26;;;;;;;2.45;2.22;;;19.10;99.90;;;;;;6180404;23;20005;-70
2023/05/12 09:55:51;;;;;;;2.80;2.50;;;19.20;99.90;;;;;;6181291;23;20079;-70
2023/05/12 09:58:18;;;;;;;4.97;2.67;;;19.20;99.90;;;;;;6180288;23;20001;-71
2023/05/12 10:00:44;;;;;;;2.80;2.55;;;19.30;99.90;;;;;;6180367;23;20005;-71
2023/05/12 10:03:16;;;;;;;2.92;2.60;;;19.20;99.90;;;;;;6180586;23;20016;-70
2023/05/12 10:05:58;;;;;;;3.08;2.78;;;19.30;99.90;;;;;;6181068;23;20399;-70
2023/05/12 10:08:33;;;;;;;4.85;2.90;;;19.40;99.90;;;;;;6180401;23;20009;-71
2023/05/12 10:11:01;;;;;;;2.40;2.20;;;19.50;99.90;;;;;;6181031;23;20008;-70
2023/05/12 10:13:27;;;;;;;4.00;2.75;;;19.50;99.90;;;;;;6180296;23;20428;-70
2023/05/12 10:15:56;;;;;;;3.50;2.45;;;19.60;99.90;;;;;;6180230;23;20005;-69
2023/05/12 10:18:22;;;;;;;2.55;2.33;;;19.60;99.90;;;;;;6179872;23;20055;-70
2023/05/12 10:20:49;;;;;;;3.20;2.50;;;19.60;99.90;;;;;;6154627;23;20218;-70
2023/05/12 10:23:17;;;;;;;4.28;2.58;;;19.70;99.90;;;;;;6153454;23;20009;-70
2023/05/12 10:25:43;;;;;;;2.97;2.33;;;19.80;99.90;;;;;;6181006;23;20000;-70
2023/05/12 10:28:10;;;;;;;2.53;2.25;;;19.80;99.90;;;;;;6180245;23;19993;-70
2023/05/12 10:30:38;;;;;;;3.03;2.72;;;19.90;99.90;;;;;;6180260;23;20001;-70
2023/05/12 10:33:04;;;;;;;3.45;2.88;;;20.00;99.90;;;;;;6180542;23;20020;-70
2023/05/12 10:35:34;;;;;;;2.92;2.72;;;20.20;99.90;;;;;;6179143;23;20028;-70
2023/05/12 10:38:04;;;;;;;2.45;2.25;;;20.20;99.90;;;;;;6180410;23;20004;-71
2023/05/12 10:40:30;;;;;;;3.10;2.55;;;20.30;99.90;;;;;;6179897;23;20088;-71
2023/05/12 10:42:58;;;;;;;2.40;2.20;;;20.50;99.90;;;;;;6179982;23;20064;-71
2023/05/12 10:45:24;;;;;;;2.83;2.50;;;20.60;99.40;;;;;;6180095;23;20371;-71
2023/05/12 10:47:50;;;;;;;7.57;3.05;;;20.70;98.70;;;;;;6154249;23;20043;-71
2023/05/12 10:50:26;;;;;;;2.50;2.30;;;20.70;98.50;;;;;;6179945;23;20001;-70
2023/05/12 10:52:53;;;;;;;4.25;2.42;;;20.80;97.90;;;;;;6180814;23;20060;-70
2023/05/12 10:55:40;;;;;;;3.80;2.72;;;20.80;97.20;;;;;;6179739;23;20044;-71
2023/05/12 10:58:09;;;;;;;2.50;2.30;;;20.90;96.70;;;;;;6153536;23;20076;-70
2023/05/12 11:00:48;;;;;;;3.78;2.50;;;21.00;97.50;;;;;;6180148;23;20005;-71
2023/05/12 11:03:16;;;;;;;2.92;2.72;;;21.20;97.40;;;;;;6179962;23;20012;-71
2023/05/12 11:05:43;;;;;;;2.50;2.30;;;21.20;96.60;;;;;;6180073;23;19997;-70
2023/05/12 11:08:09;;;;;;;3.17;2.88;;;21.10;96.40;;;;;;6179785;23;20280;-71
2023/05/12 11:10:34;;;;;;;3.95;2.58;;;21.00;96.00;;;;;;6179748;23;20092;-70
2023/05/12 11:13:02;;;;;;;2.08;1.98;;;20.90;95.30;;;;;;6179999;23;20430;-70
2023/05/12 11:15:28;;;;;;;3.35;2.35;;;20.70;95.40;;;;;;6179706;23;20072;-70
2023/05/12 11:17:54;;;;;;;5.63;2.70;;;20.60;96.00;;;;;;6180158;23;20028;-70
2023/05/12 11:20:24;;;;;;;3.45;2.45;;;20.60;96.10;;;;;;6179603;23;20343;-68
2023/05/12 11:22:51;;;;;;;3.00;2.65;;;20.60;95.90;;;;;;6155020;23;20379;-70
2023/05/12 11:25:17;;;;;;;2.85;2.20;;;20.60;95.40;;;;;;6154167;23;20581;-70
2023/05/12 11:27:49;;;;;;;2.22;1.58;;;20.70;95.40;;;;;;6180339;23;20012;-69
2023/05/12 11:30:15;;;;;;;4.47;1.67;;;20.70;95.40;;;;;;6179862;23;20442;-69
2023/05/12 11:32:41;;;;;;;2.20;1.98;;;20.80;95.50;;;;;;6179570;23;20001;-70
2023/05/12 11:35:09;;;;;;;2.75;2.55;;;20.90;95.40;;;;;;6179832;23;20435;-70
2023/05/12 11:37:39;;;;;;;2.55;2.17;;;21.00;95.00;;;;;;6178866;23;20008;-68
2023/05/12 11:40:16;;;;;;;2.85;2.63;;;21.20;95.30;;;;;;6180823;23;20059;-69
2023/05/12 11:42:47;;;;;;;3.38;2.60;;;21.40;94.80;;;;;;6179839;23;20005;-69
2023/05/12 11:45:27;;;;;;;3.20;2.50;;;21.40;94.20;;;;;;6179768;23;20001;-70
2023/05/12 11:48:08;;;;;;;3.53;2.67;;;21.50;94.60;;;;;;6153558;23;20008;-70
2023/05/12 11:50:37;;;;;;;5.20;2.63;;;21.60;94.30;;;;;;6179366;23;20013;-70
2023/05/12 11:53:03;;;;;;;4.05;2.97;;;21.60;93.60;;;;;;6179860;23;20001;-69
2023/05/12 11:55:29;;;;;;;3.40;3.10;;;21.70;93.50;;;;;;6178852;23;20008;-69
2023/05/12 11:58:00;;;;;;;4.18;3.28;;;21.70;93.60;;;;;;6179424;23;20423;-70
2023/05/12 12:00:33;;;;;;;2.55;2.35;;;21.80;93.30;;;;;;6179110;23;20009;-69
2023/05/12 12:03:10;;;;;;;4.80;2.30;;;21.90;93.40;;;;;;6180038;23;20034;-69
2023/05/12 12:05:36;;;;;;;3.20;2.90;;;22.00;92.70;;;;;;6179466;23;20003;-69
2023/05/12 12:08:15;;;;;;;4.57;2.85;;;21.90;91.90;;;;;;6180140;23;19997;-69
2023/05/12 12:10:44;;;;;;;4.65;2.47;;;21.80;91.50;;;;;;6178623;23;20020;-69
2023/05/12 12:13:11;;;;;;;3.90;2.67;;;21.70;92.10;;;;;;6179957;23;20382;-73
2023/05/12 12:15:37;;;;;;;2.72;2.33;;;21.80;92.20;;;;;;6179636;23;20008;-69
2023/05/12 12:18:03;;;;;;;3.40;2.47;;;21.90;92.50;;;;;;6180265;23;20028;-71
2023/05/12 12:20:29;;;;;;;2.85;2.45;;;22.00;92.40;;;;;;6179522;23;20020;-71
2023/05/12 12:22:55;;;;;;;3.08;1.83;;;22.20;91.90;;;;;;6179405;23;19993;-71
2023/05/12 12:25:20;;;;;;;3.67;2.22;;;22.30;91.70;;;;;;6179316;23;20080;-71
2023/05/12 12:27:47;;;;;;;3.47;2.20;;;22.40;91.30;;;;;;6153238;23;20009;-71
2023/05/12 12:30:15;;;;;;;2.42;1.92;;;22.50;90.80;;;;;;6179639;23;20041;-72
2023/05/12 12:32:41;;;;;;;3.55;2.30;;;22.70;90.30;;;;;;6179494;23;20000;-71
2023/05/12 12:35:07;;;;;;;2.55;2.35;;;22.80;90.40;;;;;;6179839;23;20392;-71